Thursday, March 23, 2017, 12:22 AM EDT
Back to Local

KPTW, Pottstown Limerick Airport

Location: Royersford, PA, United States Lat: 40.233
Local Time: 12:22 AM EDT ( 4:22 GMT) Lon: -75.55
Time Zone: US/Eastern Elev: 291 ft

Show me the last for .
Show Decoded

2017-03-22 23:54 METAR KPTW 230354Z AUTO 35007KT 10SM CLR M04/M18 A3050 RMK AO2 SLP330 T10441178
                 TSNO =
2017-03-22 22:54 METAR KPTW 230254Z AUTO 36006KT 10SM CLR M04/M18 A3048 RMK AO2 SLP323 T10391178
                 51026 TSNO =
2017-03-22 21:54 METAR KPTW 230154Z AUTO 01006KT 10SM CLR M03/M18 A3046 RMK AO2 SLP315 T10281183
                 TSNO =
2017-03-22 20:54 METAR KPTW 230054Z AUTO 35007KT 10SM CLR M02/M18 A3043 RMK AO2 SLP305 T10221178
                 TSNO =
2017-03-22 19:54 METAR KPTW 222354Z AUTO 35007KT 10SM CLR M02/M17 A3041 RMK AO2 SLP297 T10171172
                 10028 21017 53033 TSNO =
2017-03-22 18:54 METAR KPTW 222254Z AUTO 34013G21KT 10SM CLR 00/M18 A3036 RMK AO2 SLP283
                 T00001178 TSNO =
2017-03-22 17:54 METAR KPTW 222154Z AUTO 32014G24KT 10SM CLR 01/M17 A3033 RMK AO2 PK WND
                 34026/2119 SLP271 T00111172 TSNO =
2017-03-22 16:54 METAR KPTW 222054Z AUTO 34015G24KT 10SM CLR 02/M17 A3031 RMK AO2 PK WND
                 33030/1956 SLP263 T00171172 53017 TSNO =
2017-03-22 15:54 METAR KPTW 221954Z AUTO 33018G28KT 10SM CLR 02/M16 A3028 RMK AO2 PK WND
                 34030/1926 SLP252 T00221161 TSNO =
2017-03-22 14:54 METAR KPTW 221854Z AUTO 31017G24KT 10SM CLR 02/M15 A3026 RMK AO2 PK WND
                 31026/1815 SLP247 T00171150 TSNO =
2017-03-22 13:54 METAR KPTW 221754Z AUTO 34020G29KT 10SM CLR 02/M15 A3026 RMK AO2 PK WND
                 33029/1754 SLP246 T00171150 10028 20011 51022 TSNO =
2017-03-22 12:54 METAR KPTW 221654Z AUTO 32018G25KT 10SM CLR 02/M16 A3024 RMK AO2 PK WND
                 32029/1623 SLP240 T00171156 TSNO =
2017-03-22 11:54 METAR KPTW 221554Z AUTO 31018G26KT 10SM CLR 02/M12 A3022 RMK AO2 PK WND
                 31030/1519 SLP231 T00221122 TSNO =
2017-03-22 10:54 METAR KPTW 221454Z AUTO 32015G23KT 10SM CLR 02/M13 A3019 RMK AO2 PK WND
                 35026/1413 SLP223 T00171128 51037 TSNO =
2017-03-22 09:54 METAR KPTW 221354Z AUTO 31011G28KT 10SM CLR 02/M11 A3016 RMK AO2 PK WND
                 31028/1350 SLP213 T00171111 TSNO =
2017-03-22 08:54 METAR KPTW 221254Z AUTO 33018G31KT 10SM FEW041 FEW049 02/M09 A3013 RMK AO2 PK
                 WND 34031/1245 SLP201 T00171094 TSNO =
2017-03-22 07:54 METAR KPTW 221154Z AUTO 34012G20KT 10SM SCT047 03/M07 A3008 RMK AO2 SLP186
                 T00281072 10061 20022 51044 TSNO =
2017-03-22 06:54 METAR KPTW 221054Z AUTO 32011G19KT 10SM CLR 03/M08 A3004 RMK AO2 SLP173
                 T00281078 TSNO =
2017-03-22 05:54 METAR KPTW 220954Z AUTO 33013G18KT 10SM CLR 04/M05 A3000 RMK AO2 SLP157
                 T00391050 TSNO =
2017-03-22 04:54 METAR KPTW 220854Z AUTO 33004KT 10SM CLR 05/M05 A2995 RMK AO2 SLP141 T00501050
                 53014 TSNO =
2017-03-22 03:54 METAR KPTW 220754Z AUTO 33007KT 10SM CLR 06/M06 A2992 RMK AO2 SLP129 T00561056
                 TSNO =
2017-03-22 02:54 METAR KPTW 220654Z AUTO 33003KT 10SM BKN080 04/M03 A2991 RMK AO2 SLP128
                 T00441033 TSNO =
2017-03-22 01:54 METAR KPTW 220554Z AUTO 00000KT 10SM CLR 05/M03 A2991 RMK AO2 SLP127 T00501033
                 10106 20050 51009 TSNO =
2017-03-22 00:54 METAR KPTW 220454Z AUTO 33005KT 10SM CLR 08/M04 A2991 RMK AO2 SLP125 T00831039
                 401390033 TSNO =

Support USWX by starting your Amazon purchase here.